Time;durP1;ratioP1;P1;durP2;ratioP2;P2;SDS_P1;SDS_P2;PMS_P1;PMS_P2;Temp;Humidity;BMP_temperature;BMP_pressure;BME280_temperature;BME280_humidity;BME280_pressure;Samples;Min_cycle;Max_cycle;Signal;HPM_P1;HPM_P2
2023/01/08 00:00:26;;;;;;;17.20;11.90;;;;;;;10.39;100.00;101729.16;2098384;28;20044;-75
2023/01/08 00:01:49;;;;;;;16.52;12.52;;;;;;;10.37;100.00;101728.25;2089693;28;20049;-75
2023/01/08 00:03:10;;;;;;;18.90;12.55;;;;;;;10.37;100.00;101728.25;2090236;28;20040;-75
2023/01/08 00:04:33;;;;;;;18.58;12.02;;;;;;;10.36;100.00;101726.44;2089434;28;20648;-75
2023/01/08 00:05:54;;;;;;;18.73;11.48;;;;;;;10.36;100.00;101726.44;2085461;28;20033;-74
2023/01/08 00:07:17;;;;;;;18.17;12.27;;;;;;;10.35;100.00;101728.19;2096432;28;20048;-74
2023/01/08 00:08:38;;;;;;;16.30;11.75;;;;;;;10.36;100.00;101726.44;2092784;28;20048;-75
2023/01/08 00:10:00;;;;;;;16.27;11.63;;;;;;;10.37;100.00;101723.84;2092905;28;20051;-75
2023/01/08 00:11:22;;;;;;;16.52;11.45;;;;;;;10.39;100.00;101723.88;2100388;28;20052;-75
2023/01/08 00:12:44;;;;;;;19.00;12.68;;;;;;;10.41;100.00;101729.22;2096482;28;20780;-75
2023/01/08 00:14:08;;;;;;;19.92;13.02;;;;;;;10.42;100.00;101720.47;2092717;28;20400;-75
2023/01/08 00:15:30;;;;;;;19.92;13.38;;;;;;;10.42;100.00;101720.47;2094131;28;20041;-75
2023/01/08 00:16:52;;;;;;;18.48;12.50;;;;;;;10.42;100.00;101724.00;2093784;28;20049;-75
2023/01/08 00:18:14;;;;;;;18.20;12.77;;;;;;;10.43;100.00;101727.53;2092734;28;20065;-75
2023/01/08 00:19:36;;;;;;;19.00;13.15;;;;;;;10.41;100.00;101724.84;2092228;28;20044;-75
2023/01/08 00:20:58;;;;;;;20.77;14.23;;;;;;;10.38;100.00;101725.63;2095106;28;20063;-74
2023/01/08 00:22:20;;;;;;;18.73;12.85;;;;;;;10.35;100.00;101714.09;2093560;28;20068;-75
2023/01/08 00:23:43;;;;;;;17.70;11.80;;;;;;;10.29;100.00;101720.06;2096478;28;20063;-74
2023/01/08 00:25:05;;;;;;;18.58;12.07;;;;;;;10.27;100.00;101715.59;2092473;28;20041;-75
2023/01/08 00:26:28;;;;;;;17.70;12.80;;;;;;;10.25;100.00;101712.88;2084384;28;20049;-74
2023/01/08 00:27:51;;;;;;;16.75;11.95;;;;;;;10.24;100.00;101715.50;2096925;28;20127;-75
2023/01/08 00:29:15;;;;;;;17.77;12.25;;;;;;;10.19;100.00;101712.69;2088537;28;20084;-75
2023/01/08 00:30:36;;;;;;;17.42;11.30;;;;;;;10.17;100.00;101709.13;2094788;28;20486;-75
2023/01/08 00:31:59;;;;;;;16.42;10.52;;;;;;;10.13;100.00;101706.28;2086821;28;20456;-75
2023/01/08 00:33:20;;;;;;;17.40;11.57;;;;;;;10.10;100.00;101714.13;2101080;28;20554;-74
2023/01/08 00:34:42;;;;;;;17.05;12.20;;;;;;;10.07;100.00;101693.81;2097755;28;20067;-75
2023/01/08 00:36:07;;;;;;;17.15;11.10;;;;;;;10.08;100.00;101707.88;2095141;28;20777;-74
2023/01/08 00:37:29;;;;;;;19.42;11.80;;;;;;;10.10;100.00;101709.75;2095804;28;20044;-75
2023/01/08 00:38:52;;;;;;;20.95;12.35;;;;;;;10.13;100.00;101711.56;2088908;28;20055;-75
2023/01/08 00:40:14;;;;;;;19.92;12.93;;;;;;;10.13;100.00;101707.19;2092390;28;20063;-74
2023/01/08 00:41:36;;;;;;;20.70;13.38;;;;;;;10.11;100.00;101714.16;2103425;28;20044;-74
2023/01/08 00:42:58;;;;;;;17.63;12.32;;;;;;;10.13;100.00;101709.81;2097797;28;20055;-75
2023/01/08 00:44:22;;;;;;;19.67;12.25;;;;;;;10.14;100.00;101701.06;2089498;28;20045;-74
2023/01/08 00:45:43;;;;;;;18.60;12.95;;;;;;;10.15;100.00;101708.16;2100857;28;20442;-74
2023/01/08 00:47:06;;;;;;;19.98;12.45;;;;;;;10.15;100.00;101702.88;2097724;28;20064;-75
2023/01/08 00:48:29;;;;;;;20.42;12.55;;;;;;;10.17;100.00;101703.84;2102680;28;20127;-74
2023/01/08 00:49:52;;;;;;;18.55;11.95;;;;;;;10.18;100.00;101704.72;2088552;28;20094;-74
2023/01/08 00:51:15;;;;;;;20.65;12.40;;;;;;;10.19;100.00;101711.81;2094595;28;20130;-75
2023/01/08 00:52:39;;;;;;;16.50;12.65;;;;;;;10.19;100.00;101710.06;2088848;28;20544;-74
2023/01/08 00:54:02;;;;;;;21.08;13.15;;;;;;;10.17;100.00;101705.59;2086342;28;20547;-75
2023/01/08 00:55:23;;;;;;;17.30;12.07;;;;;;;10.16;100.00;101702.03;2094895;28;20550;-75
2023/01/08 00:56:45;;;;;;;17.25;12.13;;;;;;;10.17;100.00;101700.31;2097674;28;20053;-75
2023/01/08 00:58:08;;;;;;;20.45;13.02;;;;;;;10.17;100.00;101701.22;2094446;28;20040;-75
2023/01/08 00:59:31;;;;;;;21.38;14.45;;;;;;;10.18;100.00;101697.72;2095038;28;20501;-75
2023/01/08 01:00:53;;;;;;;18.60;12.63;;;;;;;10.14;100.00;101701.06;2089317;28;20405;-74
2023/01/08 01:02:15;;;;;;;22.45;13.85;;;;;;;10.08;100.00;101697.34;2095003;28;20458;-74
2023/01/08 01:03:37;;;;;;;21.38;13.43;;;;;;;10.05;100.00;101695.47;2097727;28;20500;-75
2023/01/08 01:05:00;;;;;;;19.30;12.65;;;;;;;10.04;100.00;101699.00;2102345;28;20043;-75
2023/01/08 01:06:22;;;;;;;21.23;13.45;;;;;;;10.05;100.00;101691.94;2087654;28;20527;-75
2023/01/08 01:07:45;;;;;;;19.58;13.13;;;;;;;10.06;100.00;101697.28;2092565;28;20657;-74
2023/01/08 01:09:06;;;;;;;18.00;12.25;;;;;;;10.11;100.00;101700.94;2088874;28;20037;-74
2023/01/08 01:10:29;;;;;;;;;;;;;;;10.06;100.00;101697.28;2101664;28;20408;-75
2023/01/08 01:11:51;;;;;;;18.52;12.65;;;;;;;10.06;100.00;101697.28;2097014;28;19985;-74
2023/01/08 01:13:13;;;;;;;18.33;12.23;;;;;;;10.07;100.00;101704.34;2097527;28;20113;-74
2023/01/08 01:14:38;;;;;;;17.13;12.25;;;;;;;10.06;100.00;101699.91;2102868;28;20389;-74
2023/01/08 01:16:01;;;;;;;20.77;12.80;;;;;;;10.04;100.00;101699.00;2088753;28;20053;-74
2023/01/08 01:17:23;;;;;;;19.65;12.93;;;;;;;10.01;100.00;101693.59;2084680;28;20143;-74
2023/01/08 01:18:46;;;;;;;19.20;13.40;;;;;;;9.99;100.00;101695.28;2094611;28;20048;-74
2023/01/08 01:20:09;;;;;;;20.77;12.43;;;;;;;9.95;100.00;101696.03;2098577;28;20044;-75
2023/01/08 01:21:32;;;;;;;20.67;11.82;;;;;;;9.92;100.00;101695.94;2088329;28;20067;-74
2023/01/08 01:22:53;;;;;;;18.33;11.55;;;;;;;9.89;100.00;101696.75;2100160;28;20044;-74
2023/01/08 01:24:16;;;;;;;17.92;11.07;;;;;;;9.85;100.00;101699.19;2097653;28;20139;-75
2023/01/08 01:25:38;;;;;;;17.48;11.32;;;;;;;9.83;100.00;101703.56;2096750;28;20044;-75
2023/01/08 01:27:00;;;;;;;17.67;11.77;;;;;;;9.82;100.00;101701.75;2096735;28;20144;-75
2023/01/08 01:28:22;;;;;;;17.65;12.02;;;;;;;9.83;100.00;101699.19;2094045;28;20037;-74
2023/01/08 01:29:45;;;;;;;17.88;12.02;;;;;;;9.86;100.00;101701.00;2095886;28;20136;-75
2023/01/08 01:31:10;;;;;;;18.95;11.32;;;;;;;9.86;100.00;101701.00;2094587;28;20048;-76
2023/01/08 01:32:33;;;;;;;18.23;11.82;;;;;;;9.87;100.00;101701.06;2095277;28;20049;-75
2023/01/08 01:33:55;;;;;;;19.52;12.25;;;;;;;9.89;100.00;101703.75;2094728;28;20466;-75
2023/01/08 01:35:17;;;;;;;19.17;11.48;;;;;;;9.88;100.00;101699.31;2086196;28;20474;-75
2023/01/08 01:36:39;;;;;;;17.27;11.05;;;;;;;9.88;100.00;101696.69;2100478;28;20381;-75
2023/01/08 01:38:01;;;;;;;14.75;11.00;;;;;;;9.87;100.00;101692.25;2089169;28;20504;-75
2023/01/08 01:39:23;;;;;;;17.80;11.02;;;;;;;9.86;100.00;101698.38;2091613;28;20056;-75
2023/01/08 01:40:45;;;;;;;17.88;11.05;;;;;;;9.84;100.00;101693.06;2094739;28;20541;-75
2023/01/08 01:42:38;;;;;;;18.17;12.65;;;;;;;9.82;100.00;101696.47;2088834;28;20037;-75
2023/01/08 01:43:50;;;;;;;19.92;12.32;;;;;;;9.77;100.00;101692.81;2097148;28;20075;-75
2023/01/08 01:45:19;;;;;;;18.45;11.38;;;;;;;9.76;100.00;101688.38;2096047;28;20499;-75
2023/01/08 01:46:42;;;;;;;19.15;11.15;;;;;;;9.74;100.00;101690.03;2088846;28;20071;-75
2023/01/08 01:48:10;;;;;;;18.73;11.65;;;;;;;9.75;100.00;101687.47;2092201;28;20036;-75
2023/01/08 01:49:32;;;;;;;20.52;11.73;;;;;;;9.77;100.00;101682.25;2087089;28;20095;-75
2023/01/08 01:50:55;;;;;;;17.73;12.00;;;;;;;9.78;100.00;101679.63;2089170;28;20044;-75
2023/01/08 01:52:19;;;;;;;18.52;12.23;;;;;;;9.82;100.00;101688.56;2086030;28;20092;-75
2023/01/08 01:53:42;;;;;;;17.88;11.40;;;;;;;9.83;100.00;101693.91;2088991;28;20575;-75
2023/01/08 01:55:04;;;;;;;19.15;11.10;;;;;;;9.87;100.00;101684.34;2099681;28;20040;-75
2023/01/08 01:56:28;;;;;;;18.33;12.05;;;;;;;9.87;100.00;101685.25;2094508;28;20048;-75
2023/01/08 01:57:59;;;;;;;17.92;12.05;;;;;;;9.88;100.00;101681.75;2100888;28;20048;-75
2023/01/08 01:59:21;;;;;;;18.92;12.30;;;;;;;9.86;100.00;101680.81;2104125;28;20086;-75
2023/01/08 02:00:45;;;;;;;17.40;11.57;;;;;;;9.84;100.00;101681.63;2102819;28;20048;-75
2023/01/08 02:02:08;;;;;;;16.73;10.77;;;;;;;9.83;100.00;101677.19;2092027;28;20032;-75
2023/01/08 02:03:33;;;;;;;17.98;11.48;;;;;;;9.83;100.00;101679.81;2093533;28;20049;-75
2023/01/08 02:04:56;;;;;;;17.63;10.75;;;;;;;9.82;100.00;101688.56;2102131;28;20480;-75
2023/01/08 02:06:31;;;;;;;18.48;10.98;;;;;;;9.80;100.00;101680.59;2097297;28;20053;-75
2023/01/08 02:08:00;;;;;;;16.58;10.55;;;;;;;9.78;100.00;101674.38;2096203;28;20048;-75
2023/01/08 02:09:30;;;;;;;14.38;9.00;;;;;;;9.77;100.00;101676.97;2087916;28;20073;-75
2023/01/08 02:10:57;;;;;;;16.13;10.55;;;;;;;9.75;100.00;101670.75;2092859;28;20106;-75
2023/01/08 02:12:26;;;;;;;16.63;9.95;;;;;;;9.74;100.00;101668.94;2094677;28;20515;-75
2023/01/08 02:13:55;;;;;;;16.23;10.40;;;;;;;9.71;100.00;101675.03;2095646;28;20048;-75
2023/01/08 02:15:21;;;;;;;16.50;10.82;;;;;;;9.69;100.00;101670.53;2094975;28;20401;-75
2023/01/08 02:16:54;;;;;;;19.45;10.93;;;;;;;9.69;100.00;101670.53;2088878;28;20064;-75
2023/01/08 02:18:19;;;;;;;;;;;;;;;9.59;100.00;101662.31;2104422;28;20060;-75
2023/01/08 02:19:43;;;;;;;17.90;9.63;;;;;;;9.63;100.00;101662.44;2095912;28;19920;-75
2023/01/08 02:21:10;;;;;;;19.00;10.82;;;;;;;9.67;100.00;101659.94;2103086;28;20625;-75
2023/01/08 02:22:46;;;;;;;17.45;10.55;;;;;;;9.69;100.00;101667.91;2103520;28;20044;-75
2023/01/08 02:24:13;;;;;;;14.73;9.63;;;;;;;9.70;100.00;101661.78;2088291;28;20158;-75
2023/01/08 02:25:55;;;;;;;16.45;9.65;;;;;;;9.71;100.00;101656.59;2093802;28;20048;-75
2023/01/08 02:27:19;;;;;;;15.38;9.20;;;;;;;9.72;100.00;101660.09;2104632;28;20056;-75
2023/01/08 02:28:45;;;;;;;16.05;10.50;;;;;;;9.74;100.00;101654.03;2088674;28;20076;-75
2023/01/08 02:30:09;;;;;;;16.80;9.95;;;;;;;9.73;100.00;101654.88;2093686;28;20056;-75
2023/01/08 02:31:33;;;;;;;16.33;9.40;;;;;;;9.73;100.00;101653.97;2098553;28;20052;-75
2023/01/08 02:32:56;;;;;;;14.80;9.27;;;;;;;9.73;100.00;101648.69;2086354;28;20101;-75
2023/01/08 02:34:19;;;;;;;14.52;9.65;;;;;;;9.72;100.00;101647.81;2099988;28;20055;-75
2023/01/08 02:35:46;;;;;;;16.73;10.05;;;;;;;9.71;100.00;101661.84;2095973;28;20093;-75
2023/01/08 02:37:08;;;;;;;16.58;10.90;;;;;;;9.70;100.00;101654.78;2086391;28;20142;-75
2023/01/08 02:38:32;;;;;;;18.83;11.98;;;;;;;9.67;100.00;101651.13;2088437;28;20049;-75
2023/01/08 02:40:07;;;;;;;15.90;10.95;;;;;;;9.64;100.00;101649.31;2093770;28;20795;-75
2023/01/08 02:41:38;;;;;;;17.42;11.35;;;;;;;9.61;100.00;101651.84;2088625;28;20053;-74
2023/01/08 02:43:10;;;;;;;18.85;12.48;;;;;;;9.59;100.00;101656.16;2087389;28;20132;-75
2023/01/08 02:44:45;;;;;;;17.30;10.68;;;;;;;9.57;100.00;101653.47;2079047;28;20426;-74
2023/01/08 02:46:14;;;;;;;15.50;10.40;;;;;;;9.57;100.00;101655.22;2094646;28;20040;-75
2023/01/08 02:47:41;;;;;;;16.17;10.85;;;;;;;9.55;100.00;101643.72;2102616;28;20081;-75
2023/01/08 02:49:06;;;;;;;15.23;10.50;;;;;;;9.57;100.00;101649.94;2087566;28;20047;-74
2023/01/08 02:50:33;;;;;;;15.98;11.93;;;;;;;9.58;100.00;101647.34;2091605;28;20072;-74
2023/01/08 02:51:59;;;;;;;15.32;10.60;;;;;;;9.57;100.00;101652.59;2093328;28;20689;-74
2023/01/08 02:53:26;;;;;;;15.88;10.20;;;;;;;9.56;100.00;101642.88;2087432;28;20135;-74
2023/01/08 02:54:48;;;;;;;15.93;10.60;;;;;;;9.57;100.00;101640.31;2092172;28;20446;-74
2023/01/08 02:56:15;;;;;;;16.77;11.30;;;;;;;9.59;100.00;101642.97;2087851;28;20044;-74
2023/01/08 02:57:38;;;;;;;16.08;10.50;;;;;;;9.59;100.00;101646.50;2092035;28;20047;-75
2023/01/08 02:59:03;;;;;;;15.45;9.52;;;;;;;9.57;100.00;101648.22;2088086;28;20053;-74
2023/01/08 03:00:26;;;;;;;15.85;9.38;;;;;;;9.56;100.00;101649.06;2090869;28;20056;-75
2023/01/08 03:01:49;;;;;;;16.80;9.00;;;;;;;9.55;100.00;101638.44;2093588;28;20044;-75
2023/01/08 03:03:16;;;;;;;15.57;9.38;;;;;;;9.56;100.00;101645.50;2093949;28;20044;-75
2023/01/08 03:04:42;;;;;;;14.93;9.40;;;;;;;9.55;100.00;101638.44;2094468;28;20441;-76
2023/01/08 03:06:07;;;;;;;13.35;8.45;;;;;;;9.54;100.00;101639.28;2101879;28;20071;-75
2023/01/08 03:07:29;;;;;;;15.20;9.27;;;;;;;9.53;100.00;101643.66;2088194;28;20052;-75
2023/01/08 03:08:53;;;;;;;15.10;8.73;;;;;;;9.53;100.00;101637.50;2076827;28;20095;-76
2023/01/08 03:10:16;;;;;;;12.18;7.57;;;;;;;9.50;100.00;101635.66;2092522;28;20494;-75
2023/01/08 03:11:45;;;;;;;13.93;8.82;;;;;;;9.49;100.00;101635.59;2096660;28;20056;-76
2023/01/08 03:13:15;;;;;;;14.95;8.23;;;;;;;9.47;100.00;101630.28;2088113;28;20057;-75
2023/01/08 03:14:43;;;;;;;16.50;8.38;;;;;;;9.46;100.00;101628.47;2094266;28;20052;-75
2023/01/08 03:16:11;;;;;;;13.70;8.05;;;;;;;9.46;100.00;101631.13;2094741;28;20165;-75
2023/01/08 03:17:38;;;;;;;13.23;7.80;;;;;;;9.43;100.00;101633.66;2094593;28;20040;-75
2023/01/08 03:19:08;;;;;;;14.43;7.97;;;;;;;9.46;100.00;101628.47;2086480;28;20527;-76
2023/01/08 03:20:32;;;;;;;13.65;7.78;;;;;;;9.47;100.00;101625.00;2092346;28;20056;-75
2023/01/08 03:21:55;;;;;;;12.55;7.85;;;;;;;9.48;100.00;101626.81;2085174;28;20512;-75
2023/01/08 03:23:21;;;;;;;14.05;7.57;;;;;;;9.51;100.00;101623.38;2098667;28;20102;-75
2023/01/08 03:24:45;;;;;;;16.25;7.85;;;;;;;9.53;100.00;101624.31;2087737;28;20055;-75
2023/01/08 03:26:09;;;;;;;14.35;8.15;;;;;;;9.54;100.00;101627.00;2095794;28;20047;-75
2023/01/08 03:27:34;;;;;;;13.88;8.00;;;;;;;9.57;100.00;101627.13;2096546;28;20523;-75
2023/01/08 03:28:58;;;;;;;13.38;7.72;;;;;;;9.60;100.00;101623.66;2102636;28;20122;-76
2023/01/08 03:30:20;;;;;;;11.32;7.55;;;;;;;9.62;100.00;101618.47;2087290;28;20607;-75
2023/01/08 03:31:46;;;;;;;13.68;8.00;;;;;;;9.65;100.00;101623.84;2094084;28;20433;-75
2023/01/08 03:33:11;;;;;;;12.90;8.00;;;;;;;9.68;100.00;101632.75;2094571;28;20147;-75
2023/01/08 03:34:38;;;;;;;12.77;8.60;;;;;;;9.72;100.00;101620.53;2093277;28;20101;-75
2023/01/08 03:36:03;;;;;;;14.85;7.40;;;;;;;9.75;100.00;101634.72;2094418;28;20073;-74
2023/01/08 03:37:29;;;;;;;14.70;8.90;;;;;;;9.78;100.00;101626.03;2101526;28;20070;-75
2023/01/08 03:38:57;;;;;;;17.45;11.32;;;;;;;9.80;100.00;101626.97;2100525;28;20055;-76
2023/01/08 03:40:24;;;;;;;16.33;10.25;;;;;;;9.81;100.00;101634.94;2087694;28;20053;-75
2023/01/08 03:41:49;;;;;;;16.05;10.75;;;;;;;9.86;100.00;101624.53;2093751;28;20056;-75
2023/01/08 03:43:12;;;;;;;15.82;11.18;;;;;;;9.89;100.00;101635.19;2088258;28;20043;-75
2023/01/08 03:44:35;;;;;;;13.18;10.05;;;;;;;9.91;100.00;101638.78;2090878;28;20049;-75
2023/01/08 03:46:01;;;;;;;12.85;8.18;;;;;;;9.94;100.00;101629.22;2101154;28;20093;-75
2023/01/08 03:47:24;;;;;;;14.02;9.85;;;;;;;9.99;100.00;101632.88;2096313;28;20078;-75
2023/01/08 03:48:49;;;;;;;16.77;12.55;;;;;;;10.03;100.00;101630.34;2092825;28;20522;-75
2023/01/08 03:50:16;;;;;;;16.08;10.27;;;;;;;10.05;100.00;101634.81;2095909;28;20052;-75
2023/01/08 03:51:42;;;;;;;12.40;8.93;;;;;;;10.05;100.00;101631.28;2093572;28;20040;-75
2023/01/08 03:53:04;;;;;;;16.63;12.50;;;;;;;10.05;100.00;101629.53;2094287;28;20048;-75
2023/01/08 03:54:31;;;;;;;15.48;11.55;;;;;;;10.05;100.00;101634.81;2088171;28;20107;-75
2023/01/08 03:55:53;;;;;;;19.83;14.88;;;;;;;10.00;100.00;101632.03;2101043;28;20036;-75
2023/01/08 03:57:16;;;;;;;17.75;13.45;;;;;;;9.97;100.00;101628.44;2095622;28;20044;-75
2023/01/08 03:58:37;;;;;;;18.80;13.48;;;;;;;9.92;100.00;101627.34;2087281;28;20048;-75
2023/01/08 04:00:01;;;;;;;14.88;9.48;;;;;;;9.86;100.00;101630.69;2090954;28;20091;-75
2023/01/08 04:01:23;;;;;;;16.35;12.10;;;;;;;9.83;100.00;101632.34;2093263;28;20044;-75
2023/01/08 04:02:45;;;;;;;15.20;9.27;;;;;;;9.79;100.00;101626.06;2092847;28;20047;-75
2023/01/08 04:04:07;;;;;;;17.95;15.68;;;;;;;9.79;100.00;101633.06;2087382;28;20052;-75
2023/01/08 04:05:29;;;;;;;;;;;;;;;9.73;100.00;101630.25;2087005;28;20044;-75
2023/01/08 04:06:52;;;;;;;13.00;9.95;;;;;;;9.74;100.00;101632.94;2097537;28;20284;-75
2023/01/08 04:08:14;;;;;;;12.35;8.15;;;;;;;9.73;100.00;101632.88;2097914;28;20044;-75
2023/01/08 04:09:35;;;;;;;12.70;8.13;;;;;;;9.72;100.00;101631.97;2098019;28;20148;-75
2023/01/08 04:10:58;;;;;;;15.38;9.98;;;;;;;9.70;100.00;101631.06;2086435;28;20049;-75
2023/01/08 04:12:19;;;;;;;11.30;5.95;;;;;;;9.71;100.00;101631.97;2091912;28;20053;-75
2023/01/08 04:13:41;;;;;;;11.68;7.00;;;;;;;9.71;100.00;101632.84;2086341;28;20045;-75
2023/01/08 04:15:08;;;;;;;12.07;6.10;;;;;;;9.73;100.00;101635.50;2093027;28;20078;-75
2023/01/08 04:16:30;;;;;;;10.15;6.72;;;;;;;9.74;100.00;101637.31;2104446;28;20478;-75
2023/01/08 04:17:54;;;;;;;10.52;5.50;;;;;;;9.75;100.00;101634.72;2097873;28;20672;-76
2023/01/08 04:19:15;;;;;;;10.63;6.35;;;;;;;9.80;100.00;101646.31;2087092;28;20095;-76
2023/01/08 04:20:37;;;;;;;11.00;5.82;;;;;;;9.84;100.00;101635.06;2092403;28;20735;-75
2023/01/08 04:22:00;;;;;;;9.77;5.85;;;;;;;9.89;100.00;101648.38;2103730;28;20039;-75
2023/01/08 04:23:22;;;;;;;11.25;6.40;;;;;;;9.91;100.00;101650.19;2103535;28;20059;-75
2023/01/08 04:24:44;;;;;;;10.00;5.90;;;;;;;9.92;100.00;101649.34;2096828;28;20609;-75
2023/01/08 04:26:07;;;;;;;9.10;5.63;;;;;;;9.95;100.00;101643.28;2103728;28;20044;-75
2023/01/08 04:27:29;;;;;;;10.63;5.97;;;;;;;9.94;100.00;101646.78;2088387;28;20049;-75
2023/01/08 04:28:51;;;;;;;10.10;6.13;;;;;;;9.93;100.00;101642.34;2093992;28;20079;-75
2023/01/08 04:30:15;;;;;;;10.88;6.00;;;;;;;9.92;100.00;101645.81;2094445;28;20041;-75
2023/01/08 04:31:36;;;;;;;10.07;6.28;;;;;;;9.90;100.00;101643.16;2097522;28;20260;-75
2023/01/08 04:32:58;;;;;;;10.77;6.50;;;;;;;9.89;100.00;101646.63;2094812;28;20051;-75
2023/01/08 04:34:20;;;;;;;12.40;7.15;;;;;;;9.89;100.00;101651.00;2094257;28;20040;-75
2023/01/08 04:35:42;;;;;;;10.70;6.35;;;;;;;9.86;100.00;101653.53;2097615;28;20072;-75
2023/01/08 04:37:05;;;;;;;17.00;11.18;;;;;;;9.83;100.00;101653.44;2111420;28;20044;-75
2023/01/08 04:38:26;;;;;;;15.60;10.27;;;;;;;9.79;100.00;101652.44;2106140;28;20040;-76
2023/01/08 04:39:49;;;;;;;17.45;11.80;;;;;;;9.76;100.00;101655.00;2103536;28;20426;-75
2023/01/08 04:41:10;;;;;;;13.18;9.00;;;;;;;9.74;100.00;101658.41;2097800;28;20484;-75
2023/01/08 04:42:32;;;;;;;28.63;22.92;;;;;;;9.69;100.00;101653.00;2100878;28;20627;-75
2023/01/08 04:43:53;;;;;;;20.35;16.17;;;;;;;9.65;100.00;101660.75;2097667;28;20040;-74
2023/01/08 04:45:18;;;;;;;19.17;15.57;;;;;;;9.60;100.00;101661.47;2101939;28;20064;-75
2023/01/08 04:46:40;;;;;;;21.98;16.98;;;;;;;9.56;100.00;101659.59;2095493;28;20048;-76
2023/01/08 04:48:01;;;;;;;17.90;14.13;;;;;;;9.51;100.00;101657.66;2095140;28;20044;-76
2023/01/08 04:49:24;;;;;;;23.42;19.90;;;;;;;9.46;100.00;101662.75;2102742;28;20040;-76
2023/01/08 04:50:45;;;;;;;18.33;15.45;;;;;;;9.44;100.00;101651.28;2097836;28;20044;-75
2023/01/08 04:52:08;;;;;;;15.77;11.38;;;;;;;9.47;100.00;101655.72;2086445;28;20048;-75
2023/01/08 04:53:32;;;;;;;16.75;9.38;;;;;;;9.49;100.00;101654.94;2100680;28;20066;-75
2023/01/08 04:54:54;;;;;;;13.27;9.38;;;;;;;9.53;100.00;101659.47;2089297;28;20132;-75
2023/01/08 04:56:16;;;;;;;11.73;7.65;;;;;;;9.57;100.00;101658.75;2100663;28;20133;-75
2023/01/08 04:57:39;;;;;;;13.10;7.68;;;;;;;9.58;100.00;101657.88;2089611;28;20041;-75
2023/01/08 04:59:02;;;;;;;10.68;7.05;;;;;;;9.60;100.00;101655.31;2094219;28;20127;-75
2023/01/08 05:00:26;;;;;;;9.35;5.95;;;;;;;9.62;100.00;101655.38;2096547;28;20068;-76
2023/01/08 05:01:48;;;;;;;13.27;6.93;;;;;;;9.65;100.00;101658.97;2094224;28;20052;-76
2023/01/08 05:03:11;;;;;;;11.27;6.78;;;;;;;9.69;100.00;101655.63;2094160;28;20126;-75
2023/01/08 05:04:33;;;;;;;12.85;6.82;;;;;;;9.72;100.00;101662.72;2094665;28;20061;-75
2023/01/08 05:05:54;;;;;;;11.13;5.47;;;;;;;9.72;100.00;101660.97;2094761;28;20055;-75
2023/01/08 05:07:17;;;;;;;10.95;6.10;;;;;;;9.74;100.00;101661.94;2103260;28;20077;-75
2023/01/08 05:08:39;;;;;;;9.48;5.68;;;;;;;9.76;100.00;101660.25;2096607;28;20055;-76
2023/01/08 05:10:01;;;;;;;11.88;5.90;;;;;;;9.79;100.00;101662.09;2098129;28;20045;-75
2023/01/08 05:11:24;;;;;;;11.57;5.70;;;;;;;9.80;100.00;101664.78;2102920;28;20048;-75
2023/01/08 05:12:45;;;;;;;9.45;5.57;;;;;;;9.84;100.00;101663.16;2096114;28;20082;-75
2023/01/08 05:14:08;;;;;;;9.35;5.10;;;;;;;9.85;100.00;101662.28;2086733;28;20067;-75
2023/01/08 05:15:32;;;;;;;10.25;5.47;;;;;;;9.87;100.00;101661.50;2100704;28;20074;-76
2023/01/08 05:16:54;;;;;;;10.63;5.07;;;;;;;9.86;100.00;101654.44;2091858;28;20217;-76
2023/01/08 05:18:16;;;;;;;10.23;5.47;;;;;;;9.89;100.00;101665.09;2078650;28;20057;-75
2023/01/08 05:19:39;;;;;;;10.23;5.07;;;;;;;9.89;100.00;101658.91;2097976;28;20058;-75
2023/01/08 05:21:02;;;;;;;9.60;5.32;;;;;;;9.88;100.00;101659.75;2097335;28;20170;-75
2023/01/08 05:22:24;;;;;;;7.47;5.10;;;;;;;9.87;100.00;101661.50;2094342;28;20385;-75
2023/01/08 05:23:47;;;;;;;12.32;6.63;;;;;;;9.87;100.00;101663.25;2097400;28;20105;-76
2023/01/08 05:25:09;;;;;;;10.02;6.15;;;;;;;9.84;100.00;101665.78;2085218;28;20040;-75
2023/01/08 05:26:31;;;;;;;11.23;6.53;;;;;;;9.83;100.00;101659.63;2094061;28;20041;-75
2023/01/08 05:27:53;;;;;;;8.63;5.80;;;;;;;9.83;100.00;101659.63;2094819;28;20109;-75
2023/01/08 05:29:15;;;;;;;10.07;6.32;;;;;;;9.84;100.00;101656.16;2101951;28;20527;-75
2023/01/08 05:30:39;;;;;;;8.75;5.53;;;;;;;9.87;100.00;101665.88;2096951;28;20040;-76
2023/01/08 05:32:02;;;;;;;9.70;6.30;;;;;;;9.87;100.00;101660.59;2085946;28;20510;-75
2023/01/08 05:33:24;;;;;;;13.05;8.82;;;;;;;9.89;100.00;101665.09;2091516;28;20047;-76
2023/01/08 05:34:46;;;;;;;14.25;8.90;;;;;;;9.89;100.00;101665.09;2103066;28;20048;-75
2023/01/08 05:36:09;;;;;;;14.20;8.30;;;;;;;9.89;100.00;101661.56;2097320;28;20048;-75
2023/01/08 05:37:34;;;;;;;14.00;7.93;;;;;;;9.89;100.00;101666.84;2094943;28;20044;-75
2023/01/08 05:38:56;;;;;;;12.40;7.75;;;;;;;9.90;100.00;101660.72;2094761;28;20070;-75
2023/01/08 05:40:19;;;;;;;11.23;6.80;;;;;;;9.91;100.00;101662.50;2086061;28;20114;-75
2023/01/08 05:41:41;;;;;;;7.97;5.43;;;;;;;9.94;100.00;101662.59;2088728;28;20508;-76
2023/01/08 05:43:04;;;;;;;11.50;8.40;;;;;;;9.97;100.00;101667.97;2100496;28;20040;-75
2023/01/08 05:44:26;;;;;;;11.38;8.02;;;;;;;9.98;100.00;101669.75;2098260;28;20049;-76
2023/01/08 05:45:50;;;;;;;14.05;9.25;;;;;;;9.98;100.00;101667.13;2094958;28;20056;-75
2023/01/08 05:47:12;;;;;;;12.73;9.20;;;;;;;9.99;100.00;101666.28;2086648;28;20410;-75
2023/01/08 05:48:36;;;;;;;13.63;11.95;;;;;;;10.02;100.00;101668.13;2094415;28;20157;-75
2023/01/08 05:49:57;;;;;;;16.38;11.40;;;;;;;10.04;100.00;101664.69;2097420;28;20090;-75
2023/01/08 05:51:20;;;;;;;10.77;8.75;;;;;;;10.07;100.00;101669.16;2097595;28;20060;-75
2023/01/08 05:52:41;;;;;;;11.07;7.90;;;;;;;10.11;100.00;101665.78;2103160;28;20036;-75
2023/01/08 05:54:03;;;;;;;10.95;8.00;;;;;;;10.13;100.00;101662.34;2105617;28;20130;-75
2023/01/08 05:55:25;;;;;;;12.15;7.28;;;;;;;10.17;100.00;101663.38;2086305;28;20489;-75
2023/01/08 05:56:47;;;;;;;12.40;7.95;;;;;;;10.21;100.00;101665.25;2080817;28;20053;-75
2023/01/08 05:58:09;;;;;;;14.98;12.07;;;;;;;10.24;100.00;101665.38;2083843;28;20041;-76
2023/01/08 05:59:32;;;;;;;11.45;8.75;;;;;;;10.26;100.00;101661.91;2078306;28;20513;-75
2023/01/08 06:01:03;;;;;;;13.38;8.07;;;;;;;10.30;100.00;101663.81;2091930;28;20040;-75
2023/01/08 06:02:24;;;;;;;10.68;8.07;;;;;;;10.34;100.00;101665.69;2088963;28;20041;-75
2023/01/08 06:03:46;;;;;;;12.40;8.60;;;;;;;10.38;100.00;101667.56;2102791;28;20052;-75
2023/01/08 06:05:09;;;;;;;12.48;10.02;;;;;;;10.43;100.00;101658.91;2088786;28;20053;-75
2023/01/08 06:06:32;;;;;;;10.45;8.98;;;;;;;10.46;100.00;101662.53;2098808;28;20140;-75
2023/01/08 06:07:54;;;;;;;12.07;8.18;;;;;;;10.50;100.00;101655.63;2088982;28;20040;-75
2023/01/08 06:09:15;;;;;;;11.45;9.90;;;;;;;10.54;100.00;101660.13;2088265;28;20086;-75
2023/01/08 06:10:39;;;;;;;14.00;11.30;;;;;;;10.57;100.00;101655.81;2089870;28;20523;-75
2023/01/08 06:12:00;;;;;;;14.20;10.82;;;;;;;10.61;100.00;101668.28;2095861;28;20060;-74
2023/01/08 06:13:22;;;;;;;16.00;13.35;;;;;;;10.63;100.00;101665.69;2090977;28;20061;-74
2023/01/08 06:14:45;;;;;;;15.98;14.38;;;;;;;10.63;100.00;101661.28;2088107;28;20049;-75
2023/01/08 06:16:10;;;;;;;20.63;15.90;;;;;;;10.65;100.00;101661.31;2096635;28;20048;-75
2023/01/08 06:17:34;;;;;;;19.85;17.83;;;;;;;10.64;100.00;101670.09;2094661;28;20113;-75
2023/01/08 06:18:57;;;;;;;14.23;10.77;;;;;;;10.63;100.00;101673.59;2096176;28;20095;-75
2023/01/08 06:20:18;;;;;;;28.00;25.27;;;;;;;10.66;100.00;101668.41;2102678;28;20500;-75
2023/01/08 06:21:40;;;;;;;28.42;25.73;;;;;;;10.71;100.00;101667.69;2096077;28;20045;-75